Time;durP1;ratioP1;P1;durP2;ratioP2;P2;SDS_P1;SDS_P2;PMS_P1;PMS_P2;Temp;Humidity;BMP_temperature;BMP_pressure;BME280_temperature;BME280_humidity;BME280_pressure;Samples;Min_cycle;Max_cycle;Signal;HPM_P1;HPM_P2
2023/04/07 00:00:53;;;;;;;4.00;1.38;;;;;;;;;;5112809;28;20023;-38
2023/04/07 00:03:20;;;;;;;3.92;1.20;;;;;;;;;;5112756;28;20016;-38
2023/04/07 00:05:47;;;;;;;3.97;1.10;;;;;;;;;;5112472;28;20421;-38
2023/04/07 00:08:14;;;;;;;3.33;1.20;;;;;;;;;;5112728;28;20106;-38
2023/04/07 00:10:41;;;;;;;2.17;1.00;;;;;;;;;;5112590;28;20026;-38
2023/04/07 00:13:08;;;;;;;1.67;0.80;;;;;;;;;;5112583;28;20038;-38
2023/04/07 00:15:35;;;;;;;3.85;0.98;;;;;;;;;;5112494;28;20077;-38
2023/04/07 00:18:02;;;;;;;4.25;1.20;;;;;;;;;;5112511;28;20493;-38
2023/04/07 00:20:29;;;;;;;2.83;1.30;;;;;;;;;;5112046;28;20031;-38
2023/04/07 00:22:56;;;;;;;4.28;1.02;;;;;;;;;;5094024;28;20035;-38
2023/04/07 00:25:24;;;;;;;5.95;0.80;;;;;;;;;;5112220;28;20755;-38
2023/04/07 00:27:51;;;;;;;3.08;0.90;;;;;;;;;;5112210;28;20034;-38
2023/04/07 00:30:18;;;;;;;2.53;0.85;;;;;;;;;;5112463;28;20020;-38
2023/04/07 00:32:45;;;;;;;2.05;0.80;;;;;;;;;;5112370;28;20119;-38
2023/04/07 00:35:12;;;;;;;1.63;0.80;;;;;;;;;;5112178;28;20423;-38
2023/04/07 00:37:39;;;;;;;3.33;0.77;;;;;;;;;;5112307;28;20111;-38
2023/04/07 00:40:06;;;;;;;2.33;0.80;;;;;;;;;;5093954;28;20442;-38
2023/04/07 00:42:34;;;;;;;3.88;0.90;;;;;;;;;;5112084;28;20051;-37
2023/04/07 00:45:01;;;;;;;4.30;1.00;;;;;;;;;;5111902;28;20485;-38
2023/04/07 00:47:28;;;;;;;1.80;0.75;;;;;;;;;;5112242;28;20042;-38
2023/04/07 00:49:55;;;;;;;3.33;0.80;;;;;;;;;;5112207;28;20024;-38
2023/04/07 00:52:27;;;;;;;2.85;1.00;;;;;;;;;;5111970;28;20039;-38
2023/04/07 00:54:55;;;;;;;3.30;1.10;;;;;;;;;;5111784;28;20051;-38
2023/04/07 00:57:22;;;;;;;3.08;1.00;;;;;;;;;;5112135;28;20480;-38
2023/04/07 00:59:52;;;;;;;2.55;0.80;;;;;;;;;;5112022;28;20051;-38
2023/04/07 01:02:20;;;;;;;3.58;0.80;;;;;;;;;;5112018;28;20035;-38
2023/04/07 01:05:05;;;;;;;4.32;0.85;;;;;;;;;;5111953;28;20216;-38
2023/04/07 01:07:38;;;;;;;3.33;0.82;;;;;;;;;;5111993;28;20107;-38
2023/04/07 01:10:06;;;;;;;2.05;0.82;;;;;;;;;;5111991;28;20023;-38
2023/04/07 01:12:40;;;;;;;1.40;0.75;;;;;;;;;;5111814;28;20386;-38
2023/04/07 01:15:09;;;;;;;1.83;0.60;;;;;;;;;;5111883;28;20039;-38
2023/04/07 01:17:38;;;;;;;2.13;0.80;;;;;;;;;;5093557;28;20062;-38
2023/04/07 01:20:07;;;;;;;2.38;0.82;;;;;;;;;;5111840;28;20047;-38
2023/04/07 01:22:45;;;;;;;1.92;0.80;;;;;;;;;;5111707;28;20080;-37
2023/04/07 01:25:30;;;;;;;3.13;1.17;;;;;;;;;;5111718;28;20080;-38
2023/04/07 01:28:15;;;;;;;2.35;1.05;;;;;;;;;;5111860;28;20034;-38
2023/04/07 01:30:43;;;;;;;4.40;0.80;;;;;;;;;;5111774;28;20035;-38
2023/04/07 01:33:11;;;;;;;2.40;0.60;;;;;;;;;;5115048;28;20404;-38
2023/04/07 01:35:39;;;;;;;1.30;0.68;;;;;;;;;;5115559;28;20032;-37
2023/04/07 01:38:06;;;;;;;1.35;0.70;;;;;;;;;;5115627;28;20501;-38
2023/04/07 01:40:35;;;;;;;2.33;0.80;;;;;;;;;;5115464;28;20027;-38
2023/04/07 01:43:02;;;;;;;1.77;0.85;;;;;;;;;;5115545;28;20493;-38
2023/04/07 01:45:30;;;;;;;3.13;0.70;;;;;;;;;;5115268;28;20044;-38
2023/04/07 01:47:57;;;;;;;2.75;0.68;;;;;;;;;;5115396;28;20026;-38
2023/04/07 01:50:25;;;;;;;3.40;0.90;;;;;;;;;;5115225;28;20027;-38
2023/04/07 01:52:52;;;;;;;1.17;0.82;;;;;;;;;;5115240;28;20019;-38
2023/04/07 01:55:20;;;;;;;1.25;0.60;;;;;;;;;;5114962;28;20397;-38
2023/04/07 01:57:46;;;;;;;2.08;0.80;;;;;;;;;;5115196;28;20052;-38
2023/04/07 02:00:14;;;;;;;1.48;0.60;;;;;;;;;;5115102;28;20036;-38
2023/04/07 02:02:42;;;;;;;1.38;0.90;;;;;;;;;;5115035;28;20047;-38
2023/04/07 02:05:11;;;;;;;2.25;0.93;;;;;;;;;;5114875;28;20045;-38
2023/04/07 02:07:38;;;;;;;0.90;0.55;;;;;;;;;;5115026;28;20496;-38
2023/04/07 02:10:07;;;;;;;1.27;0.60;;;;;;;;;;5114934;28;20026;-38
2023/04/07 02:12:34;;;;;;;1.92;0.63;;;;;;;;;;5114895;28;20028;-38
2023/04/07 02:15:03;;;;;;;1.92;0.60;;;;;;;;;;5114704;28;20122;-38
2023/04/07 02:17:30;;;;;;;1.88;0.80;;;;;;;;;;5114799;28;20028;-38
2023/04/07 02:19:58;;;;;;;2.35;0.90;;;;;;;;;;5114814;28;20032;-38
2023/04/07 02:22:25;;;;;;;1.60;0.47;;;;;;;;;;5114889;28;20473;-38
2023/04/07 02:24:52;;;;;;;0.73;0.43;;;;;;;;;;5114470;28;20578;-38
2023/04/07 02:27:19;;;;;;;1.23;0.52;;;;;;;;;;5114655;28;20128;-38
2023/04/07 02:29:46;;;;;;;1.17;0.60;;;;;;;;;;5114463;28;20035;-38
2023/04/07 02:32:13;;;;;;;0.90;0.60;;;;;;;;;;5114577;28;20027;-38
2023/04/07 02:34:41;;;;;;;1.13;0.73;;;;;;;;;;5114372;28;20047;-38
2023/04/07 02:37:08;;;;;;;1.23;0.50;;;;;;;;;;5114199;28;20028;-38
2023/04/07 02:39:35;;;;;;;1.25;0.63;;;;;;;;;;5114439;28;20031;-38
2023/04/07 02:42:02;;;;;;;1.40;0.60;;;;;;;;;;5114059;28;20035;-38
2023/04/07 02:44:29;;;;;;;0.73;0.50;;;;;;;;;;5114111;28;20073;-38
2023/04/07 02:46:56;;;;;;;1.80;0.60;;;;;;;;;;5114249;28;20481;-38
2023/04/07 02:49:23;;;;;;;2.53;0.77;;;;;;;;;;5114167;28;20489;-38
2023/04/07 02:51:50;;;;;;;2.55;0.57;;;;;;;;;;5114102;28;20544;-38
2023/04/07 02:54:17;;;;;;;1.20;0.70;;;;;;;;;;5114043;28;20106;-38
2023/04/07 02:56:44;;;;;;;3.33;0.60;;;;;;;;;;5113715;28;20112;-38
2023/04/07 02:59:11;;;;;;;1.00;0.50;;;;;;;;;;5113933;28;20484;-38
2023/04/07 03:01:39;;;;;;;1.05;0.50;;;;;;;;;;5113887;28;20515;-38
2023/04/07 03:04:06;;;;;;;1.52;0.70;;;;;;;;;;5113856;28;20030;-38
2023/04/07 03:06:33;;;;;;;1.60;0.60;;;;;;;;;;5113583;28;20644;-38
2023/04/07 03:09:00;;;;;;;1.17;0.57;;;;;;;;;;5113616;28;20067;-38
2023/04/07 03:11:26;;;;;;;1.00;0.50;;;;;;;;;;5113689;28;20024;-38
2023/04/07 03:13:53;;;;;;;4.10;0.70;;;;;;;;;;5113429;28;20137;-38
2023/04/07 03:16:20;;;;;;;0.80;0.52;;;;;;;;;;5113480;28;20076;-38
2023/04/07 03:18:47;;;;;;;1.60;0.65;;;;;;;;;;5113534;28;20031;-38
2023/04/07 03:21:14;;;;;;;3.22;0.52;;;;;;;;;;5113472;28;20070;-38
2023/04/07 03:23:41;;;;;;;1.15;0.40;;;;;;;;;;5113434;28;20043;-38
2023/04/07 03:26:08;;;;;;;1.08;0.60;;;;;;;;;;5113301;28;20047;-38
2023/04/07 03:28:35;;;;;;;0.43;0.40;;;;;;;;;;5113288;28;20098;-38
2023/04/07 03:31:02;;;;;;;0.85;0.47;;;;;;;;;;5113326;28;20469;-38
2023/04/07 03:33:29;;;;;;;0.93;0.43;;;;;;;;;;5113083;28;20697;-38
2023/04/07 03:35:56;;;;;;;0.82;0.40;;;;;;;;;;5113137;28;20539;-38
2023/04/07 03:38:23;;;;;;;1.17;0.40;;;;;;;;;;5113117;28;20084;-38
2023/04/07 03:40:50;;;;;;;1.13;0.52;;;;;;;;;;5113088;28;20491;-38
2023/04/07 03:43:17;;;;;;;1.10;0.50;;;;;;;;;;5113157;28;20483;-38
2023/04/07 03:45:44;;;;;;;0.93;0.40;;;;;;;;;;5112868;28;20042;-38
2023/04/07 03:48:11;;;;;;;1.25;0.55;;;;;;;;;;5113013;28;20032;-38
2023/04/07 03:50:39;;;;;;;0.85;0.50;;;;;;;;;;5112965;28;20026;-38
2023/04/07 03:53:06;;;;;;;0.82;0.60;;;;;;;;;;5112906;28;20054;-38
2023/04/07 03:55:34;;;;;;;1.67;0.50;;;;;;;;;;5112056;28;20486;-38
2023/04/07 03:58:00;;;;;;;2.03;0.60;;;;;;;;;;5113089;28;20377;-38
2023/04/07 04:00:30;;;;;;;0.88;0.43;;;;;;;;;;5112584;28;20137;-38
2023/04/07 04:02:57;;;;;;;0.93;0.40;;;;;;;;;;5112581;28;20038;-38
2023/04/07 04:05:24;;;;;;;1.77;0.50;;;;;;;;;;5112402;28;20040;-38
2023/04/07 04:07:51;;;;;;;0.55;0.45;;;;;;;;;;5112504;28;20115;-38
2023/04/07 04:10:22;;;;;;;1.15;0.43;;;;;;;;;;5112459;28;20410;-38
2023/04/07 04:12:49;;;;;;;0.90;0.50;;;;;;;;;;5112535;28;20548;-38
2023/04/07 04:15:16;;;;;;;0.47;0.45;;;;;;;;;;5112529;28;20108;-38
2023/04/07 04:17:43;;;;;;;0.60;0.38;;;;;;;;;;5112470;28;20561;-38
2023/04/07 04:20:10;;;;;;;1.08;0.50;;;;;;;;;;5112468;28;20084;-38
2023/04/07 04:22:37;;;;;;;0.63;0.40;;;;;;;;;;5112409;28;20038;-38
2023/04/07 04:25:05;;;;;;;1.30;0.50;;;;;;;;;;5112142;28;20070;-38
2023/04/07 04:27:32;;;;;;;1.10;0.57;;;;;;;;;;5112375;28;20020;-38
2023/04/07 04:29:58;;;;;;;0.95;0.52;;;;;;;;;;5112310;28;20023;-38
2023/04/07 04:32:25;;;;;;;1.52;0.50;;;;;;;;;;5093921;28;20028;-38
2023/04/07 04:34:52;;;;;;;1.02;0.60;;;;;;;;;;5112158;28;20035;-38
2023/04/07 04:37:19;;;;;;;1.08;0.60;;;;;;;;;;5112256;28;20504;-38
2023/04/07 04:39:46;;;;;;;0.68;0.40;;;;;;;;;;5112248;28;20024;-38
2023/04/07 04:42:13;;;;;;;1.67;0.60;;;;;;;;;;5093879;28;20434;-38
2023/04/07 04:44:40;;;;;;;0.73;0.50;;;;;;;;;;5112030;28;20099;-38
2023/04/07 04:47:07;;;;;;;1.30;0.40;;;;;;;;;;5112087;28;20481;-38
2023/04/07 04:49:34;;;;;;;1.27;0.60;;;;;;;;;;5112146;28;20099;-38
2023/04/07 04:52:01;;;;;;;1.05;0.50;;;;;;;;;;5111930;28;20032;-38
2023/04/07 04:54:28;;;;;;;1.08;0.60;;;;;;;;;;5111950;28;20028;-38
2023/04/07 04:56:56;;;;;;;0.93;0.50;;;;;;;;;;5111816;28;20048;-38
2023/04/07 04:59:25;;;;;;;1.15;0.50;;;;;;;;;;5112113;28;20035;-38
2023/04/07 05:01:52;;;;;;;2.60;0.55;;;;;;;;;;5111862;28;20070;-38
2023/04/07 05:04:19;;;;;;;1.23;0.55;;;;;;;;;;5111657;28;20031;-38
2023/04/07 05:06:46;;;;;;;1.15;0.43;;;;;;;;;;5113124;28;20493;-38
2023/04/07 05:09:13;;;;;;;0.43;0.30;;;;;;;;;;5115932;28;20035;-38
2023/04/07 05:11:41;;;;;;;1.05;0.40;;;;;;;;;;5116021;28;20076;-38
2023/04/07 05:14:08;;;;;;;0.88;0.50;;;;;;;;;;5115791;28;20031;-38
2023/04/07 05:16:35;;;;;;;0.90;0.60;;;;;;;;;;5115945;28;20031;-38
2023/04/07 05:19:02;;;;;;;0.95;0.40;;;;;;;;;;5115958;28;20052;-38
2023/04/07 05:21:29;;;;;;;0.50;0.40;;;;;;;;;;5115854;28;20031;-38
2023/04/07 05:23:56;;;;;;;0.60;0.40;;;;;;;;;;5115747;28;20461;-38
2023/04/07 05:26:23;;;;;;;0.82;0.43;;;;;;;;;;5115579;28;20039;-38
2023/04/07 05:28:50;;;;;;;1.13;0.43;;;;;;;;;;5115706;28;20036;-38
2023/04/07 05:31:17;;;;;;;0.90;0.57;;;;;;;;;;5115519;28;20042;-38
2023/04/07 05:33:44;;;;;;;2.25;0.50;;;;;;;;;;5115701;28;20028;-38
2023/04/07 05:36:11;;;;;;;1.33;0.40;;;;;;;;;;5115471;28;20563;-38
2023/04/07 05:38:38;;;;;;;1.95;0.50;;;;;;;;;;5115517;28;20024;-38
2023/04/07 05:41:05;;;;;;;0.70;0.40;;;;;;;;;;5115475;28;20030;-38
2023/04/07 05:43:32;;;;;;;1.05;0.55;;;;;;;;;;5115505;28;20461;-38
2023/04/07 05:45:59;;;;;;;1.15;0.50;;;;;;;;;;5115211;28;20042;-38
2023/04/07 05:48:25;;;;;;;0.85;0.50;;;;;;;;;;5115347;28;20035;-38
2023/04/07 05:50:52;;;;;;;0.80;0.40;;;;;;;;;;5115293;28;20023;-38
2023/04/07 05:53:19;;;;;;;1.23;0.40;;;;;;;;;;5115244;28;20071;-38
2023/04/07 05:55:46;;;;;;;1.20;0.45;;;;;;;;;;5114961;28;20040;-38
2023/04/07 05:58:13;;;;;;;0.98;0.55;;;;;;;;;;5115103;28;20020;-38
2023/04/07 06:00:41;;;;;;;0.95;0.50;;;;;;;;;;5114478;28;20027;-38
2023/04/07 06:03:08;;;;;;;0.73;0.40;;;;;;;;;;5114739;28;20089;-38
2023/04/07 06:05:35;;;;;;;0.68;0.40;;;;;;;;;;5114914;28;20097;-38
2023/04/07 06:08:02;;;;;;;1.25;0.60;;;;;;;;;;5115035;28;20099;-38
2023/04/07 06:10:29;;;;;;;1.30;0.50;;;;;;;;;;5114965;28;20023;-38
2023/04/07 06:12:56;;;;;;;1.55;0.60;;;;;;;;;;5114932;28;20019;-38
2023/04/07 06:15:23;;;;;;;0.75;0.50;;;;;;;;;;5114729;28;20032;-38
2023/04/07 06:17:50;;;;;;;1.35;0.68;;;;;;;;;;5114335;28;20027;-39
2023/04/07 06:20:20;;;;;;;1.25;0.45;;;;;;;;;;5114796;28;20027;-38
2023/04/07 06:22:47;;;;;;;1.25;0.70;;;;;;;;;;5114514;28;20149;-38
2023/04/07 06:25:14;;;;;;;1.38;0.60;;;;;;;;;;5114507;28;20046;-38
2023/04/07 06:27:41;;;;;;;0.70;0.50;;;;;;;;;;5114638;28;20027;-38
2023/04/07 06:30:08;;;;;;;0.73;0.43;;;;;;;;;;5114612;28;20108;-38
2023/04/07 06:32:35;;;;;;;1.33;0.55;;;;;;;;;;5114583;28;20472;-38
2023/04/07 06:35:02;;;;;;;0.98;0.45;;;;;;;;;;5114363;28;20129;-38
2023/04/07 06:37:29;;;;;;;0.93;0.60;;;;;;;;;;5114474;28;20088;-38
2023/04/07 06:39:57;;;;;;;2.53;0.70;;;;;;;;;;5114211;28;20032;-38
2023/04/07 06:42:24;;;;;;;1.52;0.50;;;;;;;;;;5114343;28;20043;-38
2023/04/07 06:44:51;;;;;;;1.48;0.60;;;;;;;;;;5114189;28;20040;-38
2023/04/07 06:47:18;;;;;;;1.23;0.55;;;;;;;;;;5114187;28;20062;-38
2023/04/07 06:49:45;;;;;;;1.10;0.47;;;;;;;;;;5114250;28;20032;-38
2023/04/07 06:52:11;;;;;;;0.90;0.50;;;;;;;;;;5114202;28;20023;-38
2023/04/07 06:54:38;;;;;;;0.50;0.38;;;;;;;;;;5113832;28;20076;-38
2023/04/07 06:57:10;;;;;;;1.45;0.55;;;;;;;;;;5113927;28;20028;-38
2023/04/07 06:59:38;;;;;;;1.00;0.50;;;;;;;;;;5113859;28;20031;-38
2023/04/07 07:02:06;;;;;;;1.23;0.63;;;;;;;;;;5113949;28;20024;-38
2023/04/07 07:04:34;;;;;;;0.70;0.50;;;;;;;;;;5113588;28;20066;-38
2023/04/07 07:07:02;;;;;;;0.75;0.47;;;;;;;;;;5113862;28;20031;-38
2023/04/07 07:09:29;;;;;;;1.67;0.50;;;;;;;;;;5113628;28;20028;-38
2023/04/07 07:11:56;;;;;;;0.65;0.50;;;;;;;;;;5113592;28;20404;-38
2023/04/07 07:14:23;;;;;;;1.15;0.60;;;;;;;;;;5113536;28;20392;-38
2023/04/07 07:16:50;;;;;;;0.90;0.73;;;;;;;;;;5113647;28;20066;-38
2023/04/07 07:19:17;;;;;;;0.50;0.50;;;;;;;;;;5113603;28;20599;-38
2023/04/07 07:21:44;;;;;;;1.50;0.70;;;;;;;;;;5113579;28;20023;-38
2023/04/07 07:24:11;;;;;;;0.80;0.60;;;;;;;;;;5113407;28;20027;-38
2023/04/07 07:26:37;;;;;;;1.33;0.60;;;;;;;;;;5113356;28;20051;-38
2023/04/07 07:29:04;;;;;;;0.80;0.50;;;;;;;;;;5112587;28;20024;-38
2023/04/07 07:31:31;;;;;;;1.55;0.57;;;;;;;;;;5113329;28;20053;-38
2023/04/07 07:33:58;;;;;;;2.50;0.65;;;;;;;;;;5113227;28;20023;-38
2023/04/07 07:36:25;;;;;;;1.05;0.60;;;;;;;;;;5113297;28;20035;-38
2023/04/07 07:38:52;;;;;;;1.15;0.60;;;;;;;;;;5113026;28;20385;-38
2023/04/07 07:41:19;;;;;;;1.30;0.50;;;;;;;;;;5113187;28;20035;-38
2023/04/07 07:43:46;;;;;;;1.05;0.40;;;;;;;;;;5112930;28;20031;-38
2023/04/07 07:46:13;;;;;;;0.80;0.52;;;;;;;;;;5112847;28;20035;-38
2023/04/07 07:48:40;;;;;;;1.40;0.55;;;;;;;;;;5113059;28;20085;-38
2023/04/07 07:51:07;;;;;;;1.50;0.63;;;;;;;;;;5113007;28;20483;-38
2023/04/07 07:53:34;;;;;;;0.65;0.50;;;;;;;;;;5112951;28;20065;-38
2023/04/07 07:56:01;;;;;;;0.88;0.60;;;;;;;;;;5112510;28;20051;-38
2023/04/07 07:58:28;;;;;;;1.23;0.70;;;;;;;;;;5112937;28;20031;-38
2023/04/07 08:00:55;;;;;;;1.30;0.50;;;;;;;;;;5112868;28;20023;-38
2023/04/07 08:03:23;;;;;;;1.55;0.77;;;;;;;;;;5112620;28;20114;-38
2023/04/07 08:05:50;;;;;;;2.00;0.60;;;;;;;;;;5112373;28;20044;-38
2023/04/07 08:08:17;;;;;;;0.65;0.52;;;;;;;;;;5112749;28;20100;-39
2023/04/07 08:10:44;;;;;;;1.00;0.50;;;;;;;;;;5112667;28;20120;-38
2023/04/07 08:13:11;;;;;;;0.93;0.60;;;;;;;;;;5112590;28;20023;-38
2023/04/07 08:15:39;;;;;;;0.98;0.63;;;;;;;;;;5112532;28;20488;-38
2023/04/07 08:18:06;;;;;;;0.50;0.50;;;;;;;;;;5112526;28;20500;-38
2023/04/07 08:20:33;;;;;;;1.70;0.70;;;;;;;;;;5112480;28;20375;-38
2023/04/07 08:23:03;;;;;;;1.83;0.65;;;;;;;;;;5112489;28;20042;-38
2023/04/07 08:25:30;;;;;;;1.00;0.52;;;;;;;;;;5112312;28;20032;-38
2023/04/07 08:27:58;;;;;;;0.60;0.40;;;;;;;;;;5112411;28;20070;-38
2023/04/07 08:30:24;;;;;;;0.73;0.50;;;;;;;;;;5112413;28;20131;-38
2023/04/07 08:32:51;;;;;;;0.95;0.50;;;;;;;;;;5112345;28;20099;-38
2023/04/07 08:35:18;;;;;;;1.35;0.60;;;;;;;;;;5112287;28;20072;-38
2023/04/07 08:37:46;;;;;;;1.50;0.77;;;;;;;;;;5093915;28;20030;-38
2023/04/07 08:40:13;;;;;;;1.20;0.60;;;;;;;;;;5112002;28;20458;-38
2023/04/07 08:42:45;;;;;;;1.05;0.70;;;;;;;;;;5112198;28;20038;-38
2023/04/07 08:45:11;;;;;;;;;;;;;;;;;;5112435;28;20051;-38
2023/04/07 08:47:42;;;;;;;0.77;0.50;;;;;;;;;;5112153;28;19908;-38
2023/04/07 08:50:11;;;;;;;0.90;0.55;;;;;;;;;;5112230;28;20030;-38
2023/04/07 08:52:53;;;;;;;0.82;0.50;;;;;;;;;;5112132;28;20059;-38
2023/04/07 08:55:20;;;;;;;0.73;0.55;;;;;;;;;;5111758;28;20051;-38
2023/04/07 08:57:47;;;;;;;1.45;0.60;;;;;;;;;;5112098;28;20050;-38
2023/04/07 09:00:15;;;;;;;1.00;0.70;;;;;;;;;;5111994;28;20431;-38
2023/04/07 09:02:44;;;;;;;0.98;0.57;;;;;;;;;;5111874;28;20028;-38
2023/04/07 09:05:13;;;;;;;1.10;0.57;;;;;;;;;;5111631;28;20035;-38
2023/04/07 09:07:41;;;;;;;1.35;0.50;;;;;;;;;;5111721;28;20032;-38
2023/04/07 09:10:09;;;;;;;0.70;0.52;;;;;;;;;;5111750;28;20401;-38
2023/04/07 09:12:36;;;;;;;2.03;0.57;;;;;;;;;;5111762;28;20374;-38
2023/04/07 09:15:03;;;;;;;0.77;0.50;;;;;;;;;;5111905;28;20357;-38
2023/04/07 09:17:30;;;;;;;0.98;0.70;;;;;;;;;;5111892;28;20023;-38
2023/04/07 09:19:58;;;;;;;0.80;0.60;;;;;;;;;;5111884;28;20030;-38
2023/04/07 09:22:41;;;;;;;1.00;0.60;;;;;;;;;;5111847;28;20027;-38
2023/04/07 09:25:18;;;;;;;0.90;0.60;;;;;;;;;;5111733;28;20394;-38
2023/04/07 09:27:58;;;;;;;1.00;0.52;;;;;;;;;;5111897;28;20406;-38
2023/04/07 09:30:26;;;;;;;1.17;0.52;;;;;;;;;;5111784;28;20080;-38
2023/04/07 09:32:53;;;;;;;1.17;0.50;;;;;;;;;;5111723;28;20027;-38
2023/04/07 09:35:21;;;;;;;0.70;0.50;;;;;;;;;;5111469;28;20070;-38
2023/04/07 09:38:02;;;;;;;1.52;0.60;;;;;;;;;;5111589;28;20032;-38
2023/04/07 09:40:29;;;;;;;1.40;0.70;;;;;;;;;;5111642;28;20039;-38
2023/04/07 09:42:57;;;;;;;0.90;0.50;;;;;;;;;;5111635;28;20035;-38
2023/04/07 09:45:28;;;;;;;1.35;0.73;;;;;;;;;;5111228;28;20486;-38
2023/04/07 09:47:56;;;;;;;1.30;0.70;;;;;;;;;;5111643;28;20503;-38
2023/04/07 09:50:40;;;;;;;2.03;0.65;;;;;;;;;;5111601;28;20028;-38
2023/04/07 09:53:07;;;;;;;1.10;0.60;;;;;;;;;;5113101;28;20028;-38
2023/04/07 09:55:35;;;;;;;1.15;0.60;;;;;;;;;;5115059;28;20050;-38
2023/04/07 09:58:05;;;;;;;0.88;0.55;;;;;;;;;;5115300;28;20525;-38
2023/04/07 10:00:32;;;;;;;0.55;0.47;;;;;;;;;;5115296;28;20031;-38
2023/04/07 10:02:59;;;;;;;1.67;0.65;;;;;;;;;;5115142;28;20042;-38
2023/04/07 10:05:26;;;;;;;1.38;0.70;;;;;;;;;;5114954;28;20043;-38
2023/04/07 10:07:53;;;;;;;2.22;0.70;;;;;;;;;;5115050;28;20023;-38
2023/04/07 10:10:20;;;;;;;1.27;0.70;;;;;;;;;;5114930;28;20397;-38
2023/04/07 10:12:50;;;;;;;1.33;0.70;;;;;;;;;;5114976;28;20072;-38
2023/04/07 10:15:17;;;;;;;0.82;0.63;;;;;;;;;;5114780;28;20097;-38
2023/04/07 10:17:50;;;;;;;1.75;0.68;;;;;;;;;;5114895;28;20023;-38
2023/04/07 10:20:20;;;;;;;1.17;0.52;;;;;;;;;;5114635;28;20032;-38
2023/04/07 10:22:49;;;;;;;1.95;0.82;;;;;;;;;;5114747;28;20382;-38
2023/04/07 10:25:18;;;;;;;0.98;0.60;;;;;;;;;;5114538;28;20107;-38
2023/04/07 10:27:50;;;;;;;1.35;0.60;;;;;;;;;;5114654;28;20020;-38
2023/04/07 10:30:28;;;;;;;1.05;0.60;;;;;;;;;;5114625;28;20073;-38
2023/04/07 10:32:56;;;;;;;0.55;0.45;;;;;;;;;;5114551;28;20027;-38
2023/04/07 10:35:23;;;;;;;0.95;0.60;;;;;;;;;;5114209;28;20077;-38
2023/04/07 10:38:15;;;;;;;1.00;0.77;;;;;;;;;;5114413;28;20024;-38
2023/04/07 10:40:42;;;;;;;0.93;0.57;;;;;;;;;;5114248;28;20059;-38
2023/04/07 10:43:13;;;;;;;1.40;0.75;;;;;;;;;;5114234;28;20664;-38
2023/04/07 10:45:53;;;;;;;3.13;0.70;;;;;;;;;;5113908;28;20583;-38
2023/04/07 10:48:20;;;;;;;1.60;0.82;;;;;;;;;;5095901;28;20028;-38
2023/04/07 10:51:09;;;;;;;0.98;0.70;;;;;;;;;;5114068;28;20414;-38
2023/04/07 10:53:37;;;;;;;2.10;0.70;;;;;;;;;;5113927;28;20027;-38
2023/04/07 10:56:04;;;;;;;1.25;0.70;;;;;;;;;;5113682;28;20416;-38
2023/04/07 10:58:34;;;;;;;1.30;0.80;;;;;;;;;;5114056;28;20023;-38
2023/04/07 11:01:17;;;;;;;1.30;0.80;;;;;;;;;;5113855;28;20035;-38
2023/04/07 11:03:43;;;;;;;;;;;;;;;;;;5114214;28;20382;-38
2023/04/07 11:06:10;;;;;;;1.48;0.77;;;;;;;;;;5113820;28;19915;-38
2023/04/07 11:08:38;;;;;;;1.52;1.00;;;;;;;;;;5113871;28;20016;-38
2023/04/07 11:11:09;;;;;;;1.15;0.90;;;;;;;;;;5113738;28;20098;-38
2023/04/07 11:13:43;;;;;;;1.10;0.70;;;;;;;;;;5113684;28;20024;-38
2023/04/07 11:16:10;;;;;;;1.17;0.70;;;;;;;;;;5113658;28;20047;-38
2023/04/07 11:18:37;;;;;;;1.13;1.00;;;;;;;;;;5113669;28;20069;-38
2023/04/07 11:21:07;;;;;;;1.70;0.98;;;;;;;;;;5113576;28;20020;-38
2023/04/07 11:23:44;;;;;;;2.58;1.05;;;;;;;;;;5113443;28;20095;-38
2023/04/07 11:26:12;;;;;;;1.60;1.05;;;;;;;;;;5113394;28;20070;-38
2023/04/07 11:28:46;;;;;;;0.90;0.68;;;;;;;;;;5113328;28;20034;-38
2023/04/07 11:31:22;;;;;;;1.23;0.80;;;;;;;;;;5113546;28;20096;-38
2023/04/07 11:33:52;;;;;;;2.45;1.00;;;;;;;;;;5113077;28;20027;-38
2023/04/07 11:36:27;;;;;;;0.98;0.80;;;;;;;;;;5113370;28;20474;-38
2023/04/07 11:38:56;;;;;;;2.05;0.90;;;;;;;;;;5113090;28;20031;-38
2023/04/07 11:41:24;;;;;;;1.38;0.90;;;;;;;;;;5112986;28;20036;-38
2023/04/07 11:44:04;;;;;;;1.30;1.00;;;;;;;;;;5113117;28;20418;-38
2023/04/07 11:46:31;;;;;;;1.92;1.20;;;;;;;;;;5112995;28;20080;-38
2023/04/07 11:49:09;;;;;;;2.28;1.10;;;;;;;;;;5113085;28;20020;-38
2023/04/07 11:51:36;;;;;;;2.15;1.00;;;;;;;;;;5112922;28;20027;-38
2023/04/07 11:54:03;;;;;;;2.45;0.90;;;;;;;;;;5112895;28;20106;-38
2023/04/07 11:56:30;;;;;;;1.25;0.95;;;;;;;;;;5112738;28;20446;-38
2023/04/07 11:58:57;;;;;;;1.70;1.00;;;;;;;;;;5112893;28;20034;-38
2023/04/07 12:01:39;;;;;;;1.58;0.93;;;;;;;;;;5112630;28;20553;-38
2023/04/07 12:04:06;;;;;;;2.10;1.17;;;;;;;;;;5112714;28;20046;-38
2023/04/07 12:06:34;;;;;;;1.80;0.95;;;;;;;;;;5112712;28;20036;-38
2023/04/07 12:09:01;;;;;;;1.58;0.93;;;;;;;;;;5112630;28;20494;-38
2023/04/07 12:11:29;;;;;;;3.25;1.20;;;;;;;;;;5112661;28;20031;-38
2023/04/07 12:13:56;;;;;;;2.13;1.00;;;;;;;;;;5112582;28;20024;-38
2023/04/07 12:16:23;;;;;;;1.67;1.00;;;;;;;;;;5112210;28;20027;-38
2023/04/07 12:18:53;;;;;;;1.58;1.00;;;;;;;;;;5112598;28;20031;-37
2023/04/07 12:21:20;;;;;;;1.00;0.90;;;;;;;;;;5112497;28;20068;-38
2023/04/07 12:23:47;;;;;;;2.00;1.10;;;;;;;;;;5112374;28;20020;-38
2023/04/07 12:26:14;;;;;;;1.42;0.90;;;;;;;;;;5112396;28;20524;-38
2023/04/07 12:28:41;;;;;;;1.63;0.98;;;;;;;;;;5112417;28;20019;-38
2023/04/07 12:31:09;;;;;;;2.28;1.13;;;;;;;;;;5112369;28;20501;-38
2023/04/07 12:33:35;;;;;;;1.90;1.15;;;;;;;;;;5112277;28;20030;-38
2023/04/07 12:36:02;;;;;;;1.77;0.95;;;;;;;;;;5112282;28;20033;-38
2023/04/07 12:38:29;;;;;;;1.65;0.90;;;;;;;;;;5112302;28;20072;-38
2023/04/07 12:41:02;;;;;;;1.90;0.88;;;;;;;;;;5112327;28;20386;-38
2023/04/07 12:43:28;;;;;;;;;;;;;;;;;;5112568;28;20126;-38
2023/04/07 12:45:56;;;;;;;1.73;1.00;;;;;;;;;;5093770;28;19915;-37
2023/04/07 12:48:23;;;;;;;1.80;1.20;;;;;;;;;;5112036;28;20035;-37
2023/04/07 12:50:50;;;;;;;1.90;1.15;;;;;;;;;;5112177;28;20024;-38
2023/04/07 12:53:18;;;;;;;1.33;0.98;;;;;;;;;;5111948;28;20036;-38
2023/04/07 12:55:45;;;;;;;2.95;1.05;;;;;;;;;;5112009;28;20436;-38
2023/04/07 12:58:12;;;;;;;1.60;1.10;;;;;;;;;;5112042;28;20016;-38
2023/04/07 13:00:40;;;;;;;1.55;1.00;;;;;;;;;;5111914;28;20481;-38
2023/04/07 13:03:08;;;;;;;1.83;1.10;;;;;;;;;;5112213;28;20035;-38
2023/04/07 13:05:35;;;;;;;2.25;1.00;;;;;;;;;;5111678;28;20053;-38
2023/04/07 13:08:02;;;;;;;2.30;1.33;;;;;;;;;;5111963;28;20384;-38
2023/04/07 13:10:29;;;;;;;1.95;1.00;;;;;;;;;;5111919;28;20031;-38
2023/04/07 13:12:56;;;;;;;1.98;1.13;;;;;;;;;;5111847;28;20031;-38
2023/04/07 13:15:23;;;;;;;2.45;1.10;;;;;;;;;;5111773;28;20032;-37
2023/04/07 13:17:50;;;;;;;1.50;0.98;;;;;;;;;;5111932;28;20153;-37
2023/04/07 13:20:17;;;;;;;1.83;1.05;;;;;;;;;;5111851;28;20409;-38
2023/04/07 13:22:45;;;;;;;1.88;0.95;;;;;;;;;;5111903;28;20019;-38
2023/04/07 13:25:12;;;;;;;1.33;1.00;;;;;;;;;;5111530;28;20504;-37
2023/04/07 13:27:40;;;;;;;1.20;0.82;;;;;;;;;;5112865;28;20030;-38
2023/04/07 13:30:07;;;;;;;2.33;1.17;;;;;;;;;;5115642;28;20393;-38
2023/04/07 13:32:35;;;;;;;1.35;1.15;;;;;;;;;;5115797;28;20024;-38
2023/04/07 13:35:02;;;;;;;2.00;1.02;;;;;;;;;;5115617;28;20027;-38
2023/04/07 13:37:29;;;;;;;2.15;0.90;;;;;;;;;;5115705;28;20027;-38
2023/04/07 13:39:56;;;;;;;2.00;1.20;;;;;;;;;;5115543;28;20018;-38
2023/04/07 13:42:23;;;;;;;1.92;1.10;;;;;;;;;;5115635;28;20484;-38
2023/04/07 13:44:50;;;;;;;1.92;1.02;;;;;;;;;;5115339;28;20019;-37
2023/04/07 13:47:18;;;;;;;1.50;0.90;;;;;;;;;;5115469;28;20019;-38
2023/04/07 13:49:48;;;;;;;1.35;0.90;;;;;;;;;;5115243;28;20030;-38
2023/04/07 13:52:16;;;;;;;2.50;1.08;;;;;;;;;;5115401;28;20035;-38
2023/04/07 13:54:44;;;;;;;1.08;0.88;;;;;;;;;;5115035;28;20030;-38
2023/04/07 13:57:11;;;;;;;1.58;0.93;;;;;;;;;;5115066;28;20110;-37
2023/04/07 13:59:38;;;;;;;1.73;1.05;;;;;;;;;;5115079;28;20032;-38
2023/04/07 14:02:05;;;;;;;1.90;1.08;;;;;;;;;;5115167;28;20024;-38
2023/04/07 14:04:32;;;;;;;1.38;1.13;;;;;;;;;;5115246;28;20443;-37
2023/04/07 14:06:59;;;;;;;1.48;1.00;;;;;;;;;;5114929;28;20144;-37
2023/04/07 14:09:26;;;;;;;2.15;1.58;;;;;;;;;;5115060;28;20516;-38
2023/04/07 14:11:53;;;;;;;1.67;1.10;;;;;;;;;;5114980;28;20047;-38
2023/04/07 14:14:20;;;;;;;1.65;1.10;;;;;;;;;;5114763;28;20020;-37
2023/04/07 14:16:50;;;;;;;2.20;1.10;;;;;;;;;;5114900;28;20038;-38
2023/04/07 14:19:17;;;;;;;4.18;1.15;;;;;;;;;;5114683;28;20035;-37
2023/04/07 14:21:44;;;;;;;2.53;1.40;;;;;;;;;;5114794;28;20099;-38
2023/04/07 14:24:11;;;;;;;1.63;1.00;;;;;;;;;;5114649;28;20396;-38
2023/04/07 14:26:38;;;;;;;1.30;0.85;;;;;;;;;;5114607;28;20059;-38
2023/04/07 14:29:05;;;;;;;3.53;1.10;;;;;;;;;;5114673;28;20099;-37
2023/04/07 14:31:32;;;;;;;2.03;0.88;;;;;;;;;;5096263;28;20023;-37
2023/04/07 14:33:59;;;;;;;2.03;1.08;;;;;;;;;;5114541;28;20026;-37
2023/04/07 14:36:26;;;;;;;1.70;1.02;;;;;;;;;;5114489;28;20389;-37
2023/04/07 14:38:54;;;;;;;1.17;0.88;;;;;;;;;;5114102;28;20024;-38
2023/04/07 14:41:21;;;;;;;1.63;0.82;;;;;;;;;;5114294;28;20081;-37
2023/04/07 14:43:54;;;;;;;1.95;1.10;;;;;;;;;;5114349;28;20020;-37
2023/04/07 14:46:22;;;;;;;1.92;0.98;;;;;;;;;;5114089;28;20115;-38
2023/04/07 14:48:52;;;;;;;1.58;0.90;;;;;;;;;;5114304;28;20016;-38